sensor_id;sensor_type;location;lat;lon;timestamp;temperature;humidity
8892;DHT22;4482;54.332;10.118;2023-03-01T00:00:42;2.40;99.90
8892;DHT22;4482;54.332;10.118;2023-03-01T00:03:11;2.40;99.90
8892;DHT22;4482;54.332;10.118;2023-03-01T00:05:43;2.30;99.90
8892;DHT22;4482;54.332;10.118;2023-03-01T00:08:11;2.40;99.90
8892;DHT22;4482;54.332;10.118;2023-03-01T00:10:37;2.40;99.90
8892;DHT22;4482;54.332;10.118;2023-03-01T00:13:04;2.40;99.90
8892;DHT22;4482;54.332;10.118;2023-03-01T00:15:31;2.40;99.90
8892;DHT22;4482;54.332;10.118;2023-03-01T00:18:00;2.30;99.90
8892;DHT22;4482;54.332;10.118;2023-03-01T00:20:26;2.30;99.90
8892;DHT22;4482;54.332;10.118;2023-03-01T00:22:53;2.30;99.90
8892;DHT22;4482;54.332;10.118;2023-03-01T00:25:21;2.30;99.90
8892;DHT22;4482;54.332;10.118;2023-03-01T00:27:48;2.30;99.90
8892;DHT22;4482;54.332;10.118;2023-03-01T00:30:15;2.20;99.90
8892;DHT22;4482;54.332;10.118;2023-03-01T00:32:42;2.20;99.90
8892;DHT22;4482;54.332;10.118;2023-03-01T00:35:08;2.10;99.90
8892;DHT22;4482;54.332;10.118;2023-03-01T00:37:35;2.00;99.90
8892;DHT22;4482;54.332;10.118;2023-03-01T00:40:02;1.90;99.90
8892;DHT22;4482;54.332;10.118;2023-03-01T00:42:32;1.80;99.90
8892;DHT22;4482;54.332;10.118;2023-03-01T00:44:59;1.70;99.90
8892;DHT22;4482;54.332;10.118;2023-03-01T00:47:28;1.60;99.90
8892;DHT22;4482;54.332;10.118;2023-03-01T00:49:54;1.60;99.90
8892;DHT22;4482;54.332;10.118;2023-03-01T00:52:21;1.60;99.90
8892;DHT22;4482;54.332;10.118;2023-03-01T00:54:48;1.50;99.90
8892;DHT22;4482;54.332;10.118;2023-03-01T00:57:14;1.50;99.90
8892;DHT22;4482;54.332;10.118;2023-03-01T00:59:42;1.50;99.90
8892;DHT22;4482;54.332;10.118;2023-03-01T01:02:09;1.40;99.90
8892;DHT22;4482;54.332;10.118;2023-03-01T01:04:35;1.40;99.90
8892;DHT22;4482;54.332;10.118;2023-03-01T01:07:02;1.40;99.90
8892;DHT22;4482;54.332;10.118;2023-03-01T01:09:29;1.30;99.90
8892;DHT22;4482;54.332;10.118;2023-03-01T01:11:55;1.30;99.90
8892;DHT22;4482;54.332;10.118;2023-03-01T01:14:22;1.20;99.90
8892;DHT22;4482;54.332;10.118;2023-03-01T01:16:50;1.20;99.90
8892;DHT22;4482;54.332;10.118;2023-03-01T01:19:17;1.20;99.90
8892;DHT22;4482;54.332;10.118;2023-03-01T01:21:43;1.10;99.90
8892;DHT22;4482;54.332;10.118;2023-03-01T01:24:10;1.10;99.90
8892;DHT22;4482;54.332;10.118;2023-03-01T01:26:37;1.10;99.90
8892;DHT22;4482;54.332;10.118;2023-03-01T01:29:04;1.00;99.90
8892;DHT22;4482;54.332;10.118;2023-03-01T01:31:31;1.00;99.90
8892;DHT22;4482;54.332;10.118;2023-03-01T01:34:00;0.90;99.90
8892;DHT22;4482;54.332;10.118;2023-03-01T01:36:27;0.80;99.90
8892;DHT22;4482;54.332;10.118;2023-03-01T01:38:54;0.80;99.90
8892;DHT22;4482;54.332;10.118;2023-03-01T01:41:21;0.70;99.90
8892;DHT22;4482;54.332;10.118;2023-03-01T01:43:49;0.60;99.90
8892;DHT22;4482;54.332;10.118;2023-03-01T01:46:18;0.60;99.90
8892;DHT22;4482;54.332;10.118;2023-03-01T01:48:48;0.60;99.90
8892;DHT22;4482;54.332;10.118;2023-03-01T01:51:18;0.50;99.90
8892;DHT22;4482;54.332;10.118;2023-03-01T01:53:47;0.50;99.90
8892;DHT22;4482;54.332;10.118;2023-03-01T01:56:14;0.50;99.90
8892;DHT22;4482;54.332;10.118;2023-03-01T01:58:42;0.50;99.90
8892;DHT22;4482;54.332;10.118;2023-03-01T02:01:09;0.50;99.90
8892;DHT22;4482;54.332;10.118;2023-03-01T02:03:37;0.40;99.90
8892;DHT22;4482;54.332;10.118;2023-03-01T02:06:10;0.40;99.90
8892;DHT22;4482;54.332;10.118;2023-03-01T02:08:40;0.30;99.90
8892;DHT22;4482;54.332;10.118;2023-03-01T02:11:08;0.40;99.90
8892;DHT22;4482;54.332;10.118;2023-03-01T02:13:35;0.40;99.90
8892;DHT22;4482;54.332;10.118;2023-03-01T02:16:02;0.40;99.90
8892;DHT22;4482;54.332;10.118;2023-03-01T02:18:29;0.40;99.90
8892;DHT22;4482;54.332;10.118;2023-03-01T02:21:00;0.40;99.90
8892;DHT22;4482;54.332;10.118;2023-03-01T02:23:29;0.40;99.90
8892;DHT22;4482;54.332;10.118;2023-03-01T02:25:57;0.50;99.90
8892;DHT22;4482;54.332;10.118;2023-03-01T02:28:30;0.50;99.90
8892;DHT22;4482;54.332;10.118;2023-03-01T02:30:57;0.50;99.90
8892;DHT22;4482;54.332;10.118;2023-03-01T02:33:41;0.50;99.90
8892;DHT22;4482;54.332;10.118;2023-03-01T02:36:10;0.50;99.90
8892;DHT22;4482;54.332;10.118;2023-03-01T02:38:39;0.50;99.90
8892;DHT22;4482;54.332;10.118;2023-03-01T02:41:06;0.50;99.90
8892;DHT22;4482;54.332;10.118;2023-03-01T02:43:34;0.50;99.90
8892;DHT22;4482;54.332;10.118;2023-03-01T02:46:02;0.50;99.90
8892;DHT22;4482;54.332;10.118;2023-03-01T02:48:38;0.50;99.90
8892;DHT22;4482;54.332;10.118;2023-03-01T02:51:07;0.60;99.90
8892;DHT22;4482;54.332;10.118;2023-03-01T02:53:39;0.60;99.90
8892;DHT22;4482;54.332;10.118;2023-03-01T02:56:08;0.60;99.90
8892;DHT22;4482;54.332;10.118;2023-03-01T02:58:39;0.60;99.90
8892;DHT22;4482;54.332;10.118;2023-03-01T03:01:10;0.50;99.90
8892;DHT22;4482;54.332;10.118;2023-03-01T03:03:38;0.50;99.90
8892;DHT22;4482;54.332;10.118;2023-03-01T03:06:05;0.50;99.90
8892;DHT22;4482;54.332;10.118;2023-03-01T03:08:32;0.60;99.90
8892;DHT22;4482;54.332;10.118;2023-03-01T03:10:58;0.50;99.90
8892;DHT22;4482;54.332;10.118;2023-03-01T03:13:25;0.50;99.90
8892;DHT22;4482;54.332;10.118;2023-03-01T03:15:55;0.50;99.90
8892;DHT22;4482;54.332;10.118;2023-03-01T03:18:22;0.50;99.90
8892;DHT22;4482;54.332;10.118;2023-03-01T03:20:51;0.50;99.90
8892;DHT22;4482;54.332;10.118;2023-03-01T03:23:18;0.50;99.90
8892;DHT22;4482;54.332;10.118;2023-03-01T03:25:47;0.40;99.90
8892;DHT22;4482;54.332;10.118;2023-03-01T03:28:14;0.40;99.90
8892;DHT22;4482;54.332;10.118;2023-03-01T03:30:41;0.40;99.90
8892;DHT22;4482;54.332;10.118;2023-03-01T03:33:10;0.40;99.90
8892;DHT22;4482;54.332;10.118;2023-03-01T03:35:38;0.40;99.90
8892;DHT22;4482;54.332;10.118;2023-03-01T03:38:06;0.30;99.90
8892;DHT22;4482;54.332;10.118;2023-03-01T03:40:41;0.30;99.90
8892;DHT22;4482;54.332;10.118;2023-03-01T03:43:10;0.40;99.90
8892;DHT22;4482;54.332;10.118;2023-03-01T03:45:37;0.30;99.90
8892;DHT22;4482;54.332;10.118;2023-03-01T03:48:04;0.30;99.90
8892;DHT22;4482;54.332;10.118;2023-03-01T03:50:32;0.40;99.90
8892;DHT22;4482;54.332;10.118;2023-03-01T03:52:59;0.40;99.90
8892;DHT22;4482;54.332;10.118;2023-03-01T03:55:26;0.40;99.90
8892;DHT22;4482;54.332;10.118;2023-03-01T03:57:56;0.30;99.90
8892;DHT22;4482;54.332;10.118;2023-03-01T04:00:23;0.30;99.90
8892;DHT22;4482;54.332;10.118;2023-03-01T04:02:50;0.30;99.90
8892;DHT22;4482;54.332;10.118;2023-03-01T04:05:22;0.30;99.90
8892;DHT22;4482;54.332;10.118;2023-03-01T04:07:50;0.30;99.90
8892;DHT22;4482;54.332;10.118;2023-03-01T04:10:26;0.20;99.90
8892;DHT22;4482;54.332;10.118;2023-03-01T04:12:53;0.20;99.90
8892;DHT22;4482;54.332;10.118;2023-03-01T04:15:21;0.20;99.90
8892;DHT22;4482;54.332;10.118;2023-03-01T04:17:49;0.20;99.90
8892;DHT22;4482;54.332;10.118;2023-03-01T04:20:17;0.20;99.90
8892;DHT22;4482;54.332;10.118;2023-03-01T04:22:51;0.20;99.90
8892;DHT22;4482;54.332;10.118;2023-03-01T04:25:18;0.20;99.90
8892;DHT22;4482;54.332;10.118;2023-03-01T04:27:45;0.20;99.90
8892;DHT22;4482;54.332;10.118;2023-03-01T04:30:12;0.20;99.90
8892;DHT22;4482;54.332;10.118;2023-03-01T04:32:39;0.20;99.90
8892;DHT22;4482;54.332;10.118;2023-03-01T04:35:05;0.20;99.90
8892;DHT22;4482;54.332;10.118;2023-03-01T04:37:32;0.10;99.90
8892;DHT22;4482;54.332;10.118;2023-03-01T04:40:01;0.20;99.90
8892;DHT22;4482;54.332;10.118;2023-03-01T04:42:38;0.20;99.90
8892;DHT22;4482;54.332;10.118;2023-03-01T04:45:05;0.70;99.90
8892;DHT22;4482;54.332;10.118;2023-03-01T04:47:38;1.10;99.90
8892;DHT22;4482;54.332;10.118;2023-03-01T04:50:05;0.70;99.90
8892;DHT22;4482;54.332;10.118;2023-03-01T04:52:32;0.50;99.90
8892;DHT22;4482;54.332;10.118;2023-03-01T04:54:59;0.30;99.90
8892;DHT22;4482;54.332;10.118;2023-03-01T04:57:27;0.20;99.90
8892;DHT22;4482;54.332;10.118;2023-03-01T04:59:53;0.20;99.90
8892;DHT22;4482;54.332;10.118;2023-03-01T05:02:20;0.20;99.90
8892;DHT22;4482;54.332;10.118;2023-03-01T05:04:47;0.20;99.90
8892;DHT22;4482;54.332;10.118;2023-03-01T05:07:13;0.10;99.90
8892;DHT22;4482;54.332;10.118;2023-03-01T05:09:45;0.10;99.90
8892;DHT22;4482;54.332;10.118;2023-03-01T05:12:12;0.00;99.90
8892;DHT22;4482;54.332;10.118;2023-03-01T05:14:40;0.00;99.90
8892;DHT22;4482;54.332;10.118;2023-03-01T05:17:07;0.00;99.90
8892;DHT22;4482;54.332;10.118;2023-03-01T05:19:34;0.00;99.90
8892;DHT22;4482;54.332;10.118;2023-03-01T05:22:01;0.00;99.90
8892;DHT22;4482;54.332;10.118;2023-03-01T05:24:30;0.00;99.90
8892;DHT22;4482;54.332;10.118;2023-03-01T05:26:57;-0.10;99.90
8892;DHT22;4482;54.332;10.118;2023-03-01T05:29:25;0.00;99.90
8892;DHT22;4482;54.332;10.118;2023-03-01T05:31:53;-0.10;99.90
8892;DHT22;4482;54.332;10.118;2023-03-01T05:34:22;0.00;99.90
8892;DHT22;4482;54.332;10.118;2023-03-01T05:36:50;0.00;99.90
8892;DHT22;4482;54.332;10.118;2023-03-01T05:39:19;0.00;99.90
8892;DHT22;4482;54.332;10.118;2023-03-01T05:41:46;0.00;99.90
8892;DHT22;4482;54.332;10.118;2023-03-01T05:44:13;0.00;99.90
8892;DHT22;4482;54.332;10.118;2023-03-01T05:46:40;-0.10;99.90
8892;DHT22;4482;54.332;10.118;2023-03-01T05:49:08;0.00;99.90
8892;DHT22;4482;54.332;10.118;2023-03-01T05:51:34;0.00;99.90
8892;DHT22;4482;54.332;10.118;2023-03-01T05:54:01;0.00;99.90
8892;DHT22;4482;54.332;10.118;2023-03-01T05:56:27;0.00;99.90
8892;DHT22;4482;54.332;10.118;2023-03-01T05:58:54;0.00;99.90
8892;DHT22;4482;54.332;10.118;2023-03-01T06:01:21;0.00;99.90
8892;DHT22;4482;54.332;10.118;2023-03-01T06:03:47;0.00;99.90
8892;DHT22;4482;54.332;10.118;2023-03-01T06:06:15;0.00;99.90
8892;DHT22;4482;54.332;10.118;2023-03-01T06:08:42;0.40;99.90
8892;DHT22;4482;54.332;10.118;2023-03-01T06:11:09;0.90;99.90
8892;DHT22;4482;54.332;10.118;2023-03-01T06:13:35;0.70;99.90
8892;DHT22;4482;54.332;10.118;2023-03-01T06:16:04;0.50;99.90
8892;DHT22;4482;54.332;10.118;2023-03-01T06:18:31;0.30;99.90
8892;DHT22;4482;54.332;10.118;2023-03-01T06:20:57;0.20;99.90
8892;DHT22;4482;54.332;10.118;2023-03-01T06:23:25;0.30;99.90
8892;DHT22;4482;54.332;10.118;2023-03-01T06:25:52;0.20;99.90
8892;DHT22;4482;54.332;10.118;2023-03-01T06:28:19;0.10;99.90
8892;DHT22;4482;54.332;10.118;2023-03-01T06:30:45;0.20;99.90
8892;DHT22;4482;54.332;10.118;2023-03-01T06:33:12;0.40;99.90
8892;DHT22;4482;54.332;10.118;2023-03-01T06:35:39;0.70;99.90
8892;DHT22;4482;54.332;10.118;2023-03-01T06:38:05;0.60;99.90
8892;DHT22;4482;54.332;10.118;2023-03-01T06:40:34;0.50;99.90
8892;DHT22;4482;54.332;10.118;2023-03-01T06:43:01;0.40;99.90
8892;DHT22;4482;54.332;10.118;2023-03-01T06:45:28;0.40;99.90
8892;DHT22;4482;54.332;10.118;2023-03-01T06:48:01;0.50;99.90
8892;DHT22;4482;54.332;10.118;2023-03-01T06:50:27;0.50;99.90
8892;DHT22;4482;54.332;10.118;2023-03-01T06:52:55;0.50;99.90
8892;DHT22;4482;54.332;10.118;2023-03-01T06:55:21;0.50;99.90
8892;DHT22;4482;54.332;10.118;2023-03-01T06:57:49;0.40;99.90
8892;DHT22;4482;54.332;10.118;2023-03-01T07:00:20;0.50;99.90
8892;DHT22;4482;54.332;10.118;2023-03-01T07:02:47;0.70;99.90
8892;DHT22;4482;54.332;10.118;2023-03-01T07:05:13;1.10;99.90
8892;DHT22;4482;54.332;10.118;2023-03-01T07:07:40;0.90;99.90
8892;DHT22;4482;54.332;10.118;2023-03-01T07:10:07;0.90;99.90
8892;DHT22;4482;54.332;10.118;2023-03-01T07:12:34;0.80;99.90
8892;DHT22;4482;54.332;10.118;2023-03-01T07:15:02;0.80;99.90
8892;DHT22;4482;54.332;10.118;2023-03-01T07:17:29;0.80;99.90
8892;DHT22;4482;54.332;10.118;2023-03-01T07:19:56;0.90;99.90
8892;DHT22;4482;54.332;10.118;2023-03-01T07:22:22;0.90;99.90
8892;DHT22;4482;54.332;10.118;2023-03-01T07:24:49;1.00;99.90
8892;DHT22;4482;54.332;10.118;2023-03-01T07:27:16;0.90;99.90
8892;DHT22;4482;54.332;10.118;2023-03-01T07:29:42;1.00;99.90
8892;DHT22;4482;54.332;10.118;2023-03-01T07:32:10;1.00;99.90
8892;DHT22;4482;54.332;10.118;2023-03-01T07:34:37;1.20;99.90
8892;DHT22;4482;54.332;10.118;2023-03-01T07:37:04;1.30;99.90
8892;DHT22;4482;54.332;10.118;2023-03-01T07:39:30;1.40;99.90
8892;DHT22;4482;54.332;10.118;2023-03-01T07:41:57;1.40;99.90
8892;DHT22;4482;54.332;10.118;2023-03-01T07:44:24;1.30;99.90
8892;DHT22;4482;54.332;10.118;2023-03-01T07:46:50;1.40;99.90
8892;DHT22;4482;54.332;10.118;2023-03-01T07:49:22;1.40;99.90
8892;DHT22;4482;54.332;10.118;2023-03-01T07:51:51;1.30;99.90
8892;DHT22;4482;54.332;10.118;2023-03-01T07:54:18;1.40;99.90
8892;DHT22;4482;54.332;10.118;2023-03-01T07:56:44;1.40;99.90
8892;DHT22;4482;54.332;10.118;2023-03-01T07:59:11;1.30;99.90
8892;DHT22;4482;54.332;10.118;2023-03-01T08:01:38;1.30;99.90
8892;DHT22;4482;54.332;10.118;2023-03-01T08:04:04;1.50;99.90
8892;DHT22;4482;54.332;10.118;2023-03-01T08:06:34;1.50;99.90
8892;DHT22;4482;54.332;10.118;2023-03-01T08:09:01;1.40;99.90
8892;DHT22;4482;54.332;10.118;2023-03-01T08:11:28;1.50;99.90
8892;DHT22;4482;54.332;10.118;2023-03-01T08:13:55;1.60;99.90
8892;DHT22;4482;54.332;10.118;2023-03-01T08:16:22;1.60;99.90
8892;DHT22;4482;54.332;10.118;2023-03-01T08:18:49;1.70;99.90
8892;DHT22;4482;54.332;10.118;2023-03-01T08:21:16;1.80;99.90
8892;DHT22;4482;54.332;10.118;2023-03-01T08:23:44;1.80;99.90
8892;DHT22;4482;54.332;10.118;2023-03-01T08:26:12;1.80;99.90
8892;DHT22;4482;54.332;10.118;2023-03-01T08:28:39;1.90;99.90
8892;DHT22;4482;54.332;10.118;2023-03-01T08:31:13;1.90;99.90
8892;DHT22;4482;54.332;10.118;2023-03-01T08:33:40;1.80;99.90
8892;DHT22;4482;54.332;10.118;2023-03-01T08:36:07;1.70;99.90
8892;DHT22;4482;54.332;10.118;2023-03-01T08:38:34;1.60;99.90
8892;DHT22;4482;54.332;10.118;2023-03-01T08:41:02;1.60;99.90
8892;DHT22;4482;54.332;10.118;2023-03-01T08:43:29;1.70;99.90
8892;DHT22;4482;54.332;10.118;2023-03-01T08:45:56;1.70;99.90
8892;DHT22;4482;54.332;10.118;2023-03-01T08:48:23;1.80;99.90
8892;DHT22;4482;54.332;10.118;2023-03-01T08:50:49;1.80;99.90
8892;DHT22;4482;54.332;10.118;2023-03-01T08:53:16;1.90;99.90
8892;DHT22;4482;54.332;10.118;2023-03-01T08:55:43;1.90;99.90
8892;DHT22;4482;54.332;10.118;2023-03-01T08:58:11;2.00;99.90
8892;DHT22;4482;54.332;10.118;2023-03-01T09:00:37;1.90;99.90
8892;DHT22;4482;54.332;10.118;2023-03-01T09:03:05;1.90;99.90
8892;DHT22;4482;54.332;10.118;2023-03-01T09:05:32;1.80;99.90
8892;DHT22;4482;54.332;10.118;2023-03-01T09:07:59;1.70;99.90
8892;DHT22;4482;54.332;10.118;2023-03-01T09:10:26;1.80;99.90
8892;DHT22;4482;54.332;10.118;2023-03-01T09:12:52;1.90;99.90
8892;DHT22;4482;54.332;10.118;2023-03-01T09:15:20;2.00;99.90
8892;DHT22;4482;54.332;10.118;2023-03-01T09:17:47;2.10;99.90
8892;DHT22;4482;54.332;10.118;2023-03-01T09:20:13;2.10;99.90
8892;DHT22;4482;54.332;10.118;2023-03-01T09:22:40;2.20;99.90
8892;DHT22;4482;54.332;10.118;2023-03-01T09:25:07;2.00;99.90
8892;DHT22;4482;54.332;10.118;2023-03-01T09:27:35;1.90;99.90
8892;DHT22;4482;54.332;10.118;2023-03-01T09:30:01;2.00;99.90
8892;DHT22;4482;54.332;10.118;2023-03-01T09:32:30;2.20;99.90
8892;DHT22;4482;54.332;10.118;2023-03-01T09:34:57;2.20;99.90
8892;DHT22;4482;54.332;10.118;2023-03-01T09:37:29;2.30;99.90
8892;DHT22;4482;54.332;10.118;2023-03-01T09:39:56;2.20;99.90
8892;DHT22;4482;54.332;10.118;2023-03-01T09:42:23;2.30;99.90
8892;DHT22;4482;54.332;10.118;2023-03-01T09:44:51;2.30;99.90
8892;DHT22;4482;54.332;10.118;2023-03-01T09:47:19;2.30;99.90
8892;DHT22;4482;54.332;10.118;2023-03-01T09:49:50;2.40;99.90
8892;DHT22;4482;54.332;10.118;2023-03-01T09:52:21;2.80;99.90
8892;DHT22;4482;54.332;10.118;2023-03-01T09:54:49;3.10;99.90
8892;DHT22;4482;54.332;10.118;2023-03-01T09:57:19;3.10;99.90
8892;DHT22;4482;54.332;10.118;2023-03-01T09:59:52;3.30;99.90
8892;DHT22;4482;54.332;10.118;2023-03-01T10:02:23;3.50;99.90
8892;DHT22;4482;54.332;10.118;2023-03-01T10:04:52;3.50;99.90
8892;DHT22;4482;54.332;10.118;2023-03-01T10:07:22;3.50;99.90
8892;DHT22;4482;54.332;10.118;2023-03-01T10:09:53;3.50;99.90
8892;DHT22;4482;54.332;10.118;2023-03-01T10:12:20;3.30;99.90
8892;DHT22;4482;54.332;10.118;2023-03-01T10:14:51;3.20;99.90
8892;DHT22;4482;54.332;10.118;2023-03-01T10:17:24;3.20;99.90
8892;DHT22;4482;54.332;10.118;2023-03-01T10:19:53;3.00;99.90
8892;DHT22;4482;54.332;10.118;2023-03-01T10:22:20;3.00;99.90
8892;DHT22;4482;54.332;10.118;2023-03-01T10:24:47;3.10;99.90
8892;DHT22;4482;54.332;10.118;2023-03-01T10:27:15;3.20;99.90
8892;DHT22;4482;54.332;10.118;2023-03-01T10:29:46;3.10;99.90
8892;DHT22;4482;54.332;10.118;2023-03-01T10:32:14;3.00;99.90
8892;DHT22;4482;54.332;10.118;2023-03-01T10:34:41;3.00;99.90
8892;DHT22;4482;54.332;10.118;2023-03-01T10:37:10;3.00;99.90
8892;DHT22;4482;54.332;10.118;2023-03-01T10:39:37;3.00;99.90
8892;DHT22;4482;54.332;10.118;2023-03-01T10:42:22;2.90;99.90
8892;DHT22;4482;54.332;10.118;2023-03-01T10:44:49;3.10;99.90
8892;DHT22;4482;54.332;10.118;2023-03-01T10:47:17;3.00;99.90
8892;DHT22;4482;54.332;10.118;2023-03-01T10:49:56;3.00;99.90
8892;DHT22;4482;54.332;10.118;2023-03-01T10:52:25;3.00;99.90
8892;DHT22;4482;54.332;10.118;2023-03-01T10:54:53;2.90;99.90
8892;DHT22;4482;54.332;10.118;2023-03-01T10:57:28;3.10;99.90
8892;DHT22;4482;54.332;10.118;2023-03-01T11:00:01;3.10;99.90
8892;DHT22;4482;54.332;10.118;2023-03-01T11:02:29;3.30;99.90
8892;DHT22;4482;54.332;10.118;2023-03-01T11:04:58;3.50;99.90
8892;DHT22;4482;54.332;10.118;2023-03-01T11:07:27;3.50;99.90
8892;DHT22;4482;54.332;10.118;2023-03-01T11:09:54;3.50;99.90
8892;DHT22;4482;54.332;10.118;2023-03-01T11:12:20;3.50;99.90
8892;DHT22;4482;54.332;10.118;2023-03-01T11:14:47;3.40;99.90
8892;DHT22;4482;54.332;10.118;2023-03-01T11:17:15;3.30;99.90
8892;DHT22;4482;54.332;10.118;2023-03-01T11:19:43;3.30;99.90
8892;DHT22;4482;54.332;10.118;2023-03-01T11:22:27;3.20;99.90
8892;DHT22;4482;54.332;10.118;2023-03-01T11:24:54;3.30;99.90
8892;DHT22;4482;54.332;10.118;2023-03-01T11:27:22;3.40;99.90
8892;DHT22;4482;54.332;10.118;2023-03-01T11:29:52;3.50;99.90
8892;DHT22;4482;54.332;10.118;2023-03-01T11:32:20;3.50;99.90
8892;DHT22;4482;54.332;10.118;2023-03-01T11:34:51;3.60;99.90
8892;DHT22;4482;54.332;10.118;2023-03-01T11:37:22;3.40;99.90
8892;DHT22;4482;54.332;10.118;2023-03-01T11:39:56;3.40;99.90
8892;DHT22;4482;54.332;10.118;2023-03-01T11:42:28;3.30;99.90
8892;DHT22;4482;54.332;10.118;2023-03-01T11:44:57;3.40;99.90
8892;DHT22;4482;54.332;10.118;2023-03-01T11:47:29;3.50;99.90
8892;DHT22;4482;54.332;10.118;2023-03-01T11:50:07;3.40;99.90
8892;DHT22;4482;54.332;10.118;2023-03-01T11:52:38;3.20;99.90
8892;DHT22;4482;54.332;10.118;2023-03-01T11:55:17;3.00;99.90
8892;DHT22;4482;54.332;10.118;2023-03-01T11:57:49;2.90;99.90
8892;DHT22;4482;54.332;10.118;2023-03-01T12:00:24;2.90;99.90
8892;DHT22;4482;54.332;10.118;2023-03-01T12:05:44;3.20;99.90
8892;DHT22;4482;54.332;10.118;2023-03-01T12:08:20;3.20;99.90
8892;DHT22;4482;54.332;10.118;2023-03-01T12:10:52;3.10;99.90
8892;DHT22;4482;54.332;10.118;2023-03-01T12:13:25;3.10;99.90
8892;DHT22;4482;54.332;10.118;2023-03-01T12:18:50;3.30;99.90
8892;DHT22;4482;54.332;10.118;2023-03-01T12:21:21;3.60;99.90
8892;DHT22;4482;54.332;10.118;2023-03-01T12:26:40;3.70;99.90
8892;DHT22;4482;54.332;10.118;2023-03-01T12:29:12;3.80;99.90
8892;DHT22;4482;54.332;10.118;2023-03-01T12:31:48;3.90;99.90
8892;DHT22;4482;54.332;10.118;2023-03-01T12:34:26;3.90;99.90
8892;DHT22;4482;54.332;10.118;2023-03-01T12:36:59;3.90;99.90
8892;DHT22;4482;54.332;10.118;2023-03-01T12:39:33;3.90;99.90
8892;DHT22;4482;54.332;10.118;2023-03-01T12:42:05;3.90;99.90
8892;DHT22;4482;54.332;10.118;2023-03-01T12:44:38;3.90;99.90
8892;DHT22;4482;54.332;10.118;2023-03-01T12:47:12;4.00;99.90
8892;DHT22;4482;54.332;10.118;2023-03-01T12:49:41;3.80;99.90
8892;DHT22;4482;54.332;10.118;2023-03-01T12:52:11;3.60;99.90
8892;DHT22;4482;54.332;10.118;2023-03-01T12:54:38;3.60;99.90
8892;DHT22;4482;54.332;10.118;2023-03-01T12:57:08;3.70;99.90
8892;DHT22;4482;54.332;10.118;2023-03-01T12:59:39;3.70;99.90
8892;DHT22;4482;54.332;10.118;2023-03-01T13:02:12;3.60;99.90
8892;DHT22;4482;54.332;10.118;2023-03-01T13:04:51;3.70;99.90
8892;DHT22;4482;54.332;10.118;2023-03-01T13:07:21;3.70;99.90
8892;DHT22;4482;54.332;10.118;2023-03-01T13:09:51;3.80;99.90
8892;DHT22;4482;54.332;10.118;2023-03-01T13:12:43;3.90;99.90
8892;DHT22;4482;54.332;10.118;2023-03-01T13:15:27;3.90;99.90
8892;DHT22;4482;54.332;10.118;2023-03-01T13:17:54;3.80;99.90
8892;DHT22;4482;54.332;10.118;2023-03-01T13:20:22;3.70;99.90
8892;DHT22;4482;54.332;10.118;2023-03-01T13:22:59;3.70;99.90
8892;DHT22;4482;54.332;10.118;2023-03-01T13:25:27;3.70;99.90
8892;DHT22;4482;54.332;10.118;2023-03-01T13:27:56;3.60;99.90
8892;DHT22;4482;54.332;10.118;2023-03-01T13:30:43;3.60;99.90
8892;DHT22;4482;54.332;10.118;2023-03-01T13:35:55;3.50;99.90
8892;DHT22;4482;54.332;10.118;2023-03-01T13:38:38;3.50;99.90
8892;DHT22;4482;54.332;10.118;2023-03-01T13:41:11;3.40;99.90
8892;DHT22;4482;54.332;10.118;2023-03-01T13:43:40;3.40;99.90
8892;DHT22;4482;54.332;10.118;2023-03-01T13:46:08;3.40;99.90
8892;DHT22;4482;54.332;10.118;2023-03-01T13:48:36;3.40;99.90
8892;DHT22;4482;54.332;10.118;2023-03-01T13:51:04;3.20;99.90
8892;DHT22;4482;54.332;10.118;2023-03-01T13:53:33;3.20;99.90
8892;DHT22;4482;54.332;10.118;2023-03-01T13:56:02;3.20;99.90
8892;DHT22;4482;54.332;10.118;2023-03-01T13:58:29;3.10;99.90
8892;DHT22;4482;54.332;10.118;2023-03-01T14:00:59;3.00;99.90
8892;DHT22;4482;54.332;10.118;2023-03-01T14:03:26;3.10;99.90
8892;DHT22;4482;54.332;10.118;2023-03-01T14:06:03;3.00;99.90
8892;DHT22;4482;54.332;10.118;2023-03-01T14:08:35;2.90;99.90
8892;DHT22;4482;54.332;10.118;2023-03-01T14:11:17;2.80;99.90
8892;DHT22;4482;54.332;10.118;2023-03-01T14:13:54;2.70;99.90
8892;DHT22;4482;54.332;10.118;2023-03-01T14:16:27;2.70;99.90
8892;DHT22;4482;54.332;10.118;2023-03-01T14:19:00;2.60;99.90
8892;DHT22;4482;54.332;10.118;2023-03-01T14:21:29;2.50;99.90
8892;DHT22;4482;54.332;10.118;2023-03-01T14:23:56;2.50;99.90
8892;DHT22;4482;54.332;10.118;2023-03-01T14:26:23;2.60;99.90
8892;DHT22;4482;54.332;10.118;2023-03-01T14:28:50;2.50;99.90
8892;DHT22;4482;54.332;10.118;2023-03-01T14:31:34;2.50;99.90
8892;DHT22;4482;54.332;10.118;2023-03-01T14:34:01;2.30;99.90
8892;DHT22;4482;54.332;10.118;2023-03-01T14:36:28;2.30;99.90
8892;DHT22;4482;54.332;10.118;2023-03-01T14:38:55;2.30;99.90
8892;DHT22;4482;54.332;10.118;2023-03-01T14:41:24;2.30;99.90
8892;DHT22;4482;54.332;10.118;2023-03-01T14:43:52;2.20;99.90
8892;DHT22;4482;54.332;10.118;2023-03-01T14:46:22;2.30;99.90
8892;DHT22;4482;54.332;10.118;2023-03-01T14:48:52;2.30;99.90
8892;DHT22;4482;54.332;10.118;2023-03-01T14:51:19;2.30;99.90
8892;DHT22;4482;54.332;10.118;2023-03-01T14:53:46;2.30;99.90
8892;DHT22;4482;54.332;10.118;2023-03-01T14:56:13;2.40;99.90
8892;DHT22;4482;54.332;10.118;2023-03-01T14:58:40;2.40;99.90
8892;DHT22;4482;54.332;10.118;2023-03-01T15:01:07;2.30;99.90
8892;DHT22;4482;54.332;10.118;2023-03-01T15:03:37;2.20;99.90
8892;DHT22;4482;54.332;10.118;2023-03-01T15:06:06;2.20;99.90
8892;DHT22;4482;54.332;10.118;2023-03-01T15:08:33;2.20;99.90
8892;DHT22;4482;54.332;10.118;2023-03-01T15:11:02;2.20;99.90
8892;DHT22;4482;54.332;10.118;2023-03-01T15:13:29;2.40;99.90
8892;DHT22;4482;54.332;10.118;2023-03-01T15:16:01;2.30;99.90
8892;DHT22;4482;54.332;10.118;2023-03-01T15:18:28;2.40;99.90
8892;DHT22;4482;54.332;10.118;2023-03-01T15:20:55;2.40;99.90
8892;DHT22;4482;54.332;10.118;2023-03-01T15:23:32;2.40;99.90
8892;DHT22;4482;54.332;10.118;2023-03-01T15:26:00;2.40;99.90
8892;DHT22;4482;54.332;10.118;2023-03-01T15:28:29;2.40;99.90
8892;DHT22;4482;54.332;10.118;2023-03-01T15:30:57;2.40;99.90
8892;DHT22;4482;54.332;10.118;2023-03-01T15:33:34;2.40;99.90
8892;DHT22;4482;54.332;10.118;2023-03-01T15:36:02;2.40;99.90
8892;DHT22;4482;54.332;10.118;2023-03-01T15:41:23;2.50;99.90
8892;DHT22;4482;54.332;10.118;2023-03-01T15:43:51;2.50;99.90
8892;DHT22;4482;54.332;10.118;2023-03-01T15:46:23;2.50;99.90
8892;DHT22;4482;54.332;10.118;2023-03-01T15:48:52;2.40;99.90
8892;DHT22;4482;54.332;10.118;2023-03-01T15:51:21;2.40;99.90
8892;DHT22;4482;54.332;10.118;2023-03-01T15:53:50;2.40;99.90
8892;DHT22;4482;54.332;10.118;2023-03-01T15:56:17;2.40;99.90
8892;DHT22;4482;54.332;10.118;2023-03-01T15:58:45;2.30;99.90
8892;DHT22;4482;54.332;10.118;2023-03-01T16:01:12;2.20;99.90
8892;DHT22;4482;54.332;10.118;2023-03-01T16:03:39;2.10;99.90
8892;DHT22;4482;54.332;10.118;2023-03-01T16:06:07;2.20;99.90
8892;DHT22;4482;54.332;10.118;2023-03-01T16:08:34;2.20;99.90
8892;DHT22;4482;54.332;10.118;2023-03-01T16:11:01;2.20;99.90
8892;DHT22;4482;54.332;10.118;2023-03-01T16:13:30;2.20;99.90
8892;DHT22;4482;54.332;10.118;2023-03-01T16:15:58;2.20;99.90
8892;DHT22;4482;54.332;10.118;2023-03-01T16:18:25;2.30;99.90
8892;DHT22;4482;54.332;10.118;2023-03-01T16:20:51;2.40;99.90
8892;DHT22;4482;54.332;10.118;2023-03-01T16:23:19;2.30;99.90
8892;DHT22;4482;54.332;10.118;2023-03-01T16:25:46;2.30;99.90